createdAt,value
2018-12-17T00:00:25.500Z,1031.95
2018-12-17T00:01:25.485Z,1031.97
2018-12-17T00:02:25.468Z,1032
2018-12-17T00:03:25.452Z,1032
2018-12-17T00:04:25.437Z,1032.01
2018-12-17T00:05:25.421Z,1032.03
2018-12-17T00:06:25.407Z,1032.05
2018-12-17T00:07:25.391Z,1032.07
2018-12-17T00:08:31.850Z,1032.05
2018-12-17T00:09:25.358Z,1032.02
2018-12-17T00:10:25.342Z,1032.04
2018-12-17T00:11:25.328Z,1032.02
2018-12-17T00:12:25.311Z,1031.99
2018-12-17T00:13:25.295Z,1031.99
2018-12-17T00:14:25.279Z,1032
2018-12-17T00:15:25.263Z,1031.98
2018-12-17T00:16:25.248Z,1031.97
2018-12-17T00:17:25.233Z,1032
2018-12-17T00:18:25.216Z,1032
2018-12-17T00:19:25.202Z,1031.94
2018-12-17T00:20:25.183Z,1031.88
2018-12-17T00:21:25.170Z,1031.83
2018-12-17T00:22:25.153Z,1031.83
2018-12-17T00:23:25.138Z,1031.79
2018-12-17T00:24:25.121Z,1031.82
2018-12-17T00:25:25.105Z,1031.85
2018-12-17T00:26:25.091Z,1031.86
2018-12-17T00:27:25.073Z,1031.87
2018-12-17T00:28:25.062Z,1031.81
2018-12-17T00:29:25.057Z,1031.82
2018-12-17T00:30:25.028Z,1031.84
2018-12-17T00:31:25.011Z,1031.89
2018-12-17T00:32:24.995Z,1031.9
2018-12-17T00:33:24.979Z,1031.87
2018-12-17T00:34:24.967Z,1031.92
2018-12-17T00:35:24.947Z,1031.9
2018-12-17T00:36:24.934Z,1031.92
2018-12-17T00:37:24.916Z,1031.93
2018-12-17T00:38:24.900Z,1031.92
2018-12-17T00:39:25.185Z,1031.97
2018-12-17T00:40:24.870Z,1031.96
2018-12-17T00:41:24.856Z,1032.05
2018-12-17T00:42:24.838Z,1032.1
2018-12-17T00:43:24.823Z,1032.09
2018-12-17T00:44:24.807Z,1032.09
2018-12-17T00:45:24.790Z,1032.08
2018-12-17T00:46:24.775Z,1032.1
2018-12-17T00:47:24.760Z,1032.13
2018-12-17T00:48:24.744Z,1032.09
2018-12-17T00:49:24.728Z,1032.1
2018-12-17T00:50:24.711Z,1032.06
2018-12-17T00:51:24.696Z,1032.1
2018-12-17T00:52:24.680Z,1032.09
2018-12-17T00:53:24.666Z,1032.12
2018-12-17T00:54:24.649Z,1032.13
2018-12-17T00:55:24.632Z,1032.13
2018-12-17T00:56:24.617Z,1032.13
2018-12-17T00:57:24.601Z,1032.1
2018-12-17T00:58:24.586Z,1032.11
2018-12-17T00:59:24.570Z,1032.12
2018-12-17T01:00:24.554Z,1032.09
2018-12-17T01:01:24.540Z,1032.12
2018-12-17T01:02:24.524Z,1032.17
2018-12-17T01:03:24.508Z,1032.17
2018-12-17T01:04:24.491Z,1032.16
2018-12-17T01:05:24.476Z,1032.13
2018-12-17T01:06:24.460Z,1032.16
2018-12-17T01:07:24.445Z,1032.17
2018-12-17T01:08:24.429Z,1032.15
2018-12-17T01:09:24.416Z,1032.17
2018-12-17T01:10:24.397Z,1032.19
2018-12-17T01:11:24.382Z,1032.2
2018-12-17T01:12:24.365Z,1032.25
2018-12-17T01:13:24.354Z,1032.2
2018-12-17T01:14:24.334Z,1032.23
2018-12-17T01:15:24.324Z,1032.21
2018-12-17T01:16:24.302Z,1032.25
2018-12-17T01:17:24.287Z,1032.28
2018-12-17T01:18:24.273Z,1032.3
2018-12-17T01:19:24.256Z,1032.3
2018-12-17T01:20:24.239Z,1032.28
2018-12-17T01:21:24.224Z,1032.27
2018-12-17T01:22:24.209Z,1032.25
2018-12-17T01:23:24.193Z,1032.21
2018-12-17T01:24:24.178Z,1032.19
2018-12-17T01:25:24.161Z,1032.19
2018-12-17T01:26:24.145Z,1032.2
2018-12-17T01:27:24.130Z,1032.2
2018-12-17T01:28:24.114Z,1032.19
2018-12-17T01:29:24.099Z,1032.17
2018-12-17T01:30:24.082Z,1032.14
2018-12-17T01:31:24.067Z,1032.14
2018-12-17T01:32:24.051Z,1032.1
2018-12-17T01:33:24.035Z,1032.07
2018-12-17T01:34:24.021Z,1032.08
2018-12-17T01:35:24.010Z,1032.14
2018-12-17T01:36:23.991Z,1032.11
2018-12-17T01:37:23.974Z,1032.12
2018-12-17T01:38:23.958Z,1032.18
2018-12-17T01:39:23.944Z,1032.16
2018-12-17T01:40:23.927Z,1032.16
2018-12-17T01:41:23.914Z,1032.16
2018-12-17T01:42:23.895Z,1032.15
2018-12-17T01:43:23.880Z,1032.15
2018-12-17T01:44:23.867Z,1032.13
2018-12-17T01:45:23.852Z,1032.1
2018-12-17T01:46:23.834Z,1032.09
2018-12-17T01:47:23.820Z,1032.12
2018-12-17T01:48:23.802Z,1032.12
2018-12-17T01:49:23.787Z,1032.16
2018-12-17T01:50:23.771Z,1032.18
2018-12-17T01:51:23.754Z,1032.19
2018-12-17T01:52:23.740Z,1032.21
2018-12-17T01:53:23.724Z,1032.23
2018-12-17T01:54:23.710Z,1032.23
2018-12-17T01:55:23.692Z,1032.3
2018-12-17T01:56:23.678Z,1032.31
2018-12-17T01:57:23.661Z,1032.36
2018-12-17T01:58:29.124Z,1032.31
2018-12-17T01:59:23.631Z,1032.33
2018-12-17T02:00:23.616Z,1032.29
2018-12-17T02:01:23.600Z,1032.31
2018-12-17T02:02:23.583Z,1032.25
2018-12-17T02:03:23.568Z,1032.31
2018-12-17T02:04:23.554Z,1032.28
2018-12-17T02:05:23.538Z,1032.31
2018-12-17T02:06:23.526Z,1032.32
2018-12-17T02:07:23.506Z,1032.37
2018-12-17T02:08:23.494Z,1032.35
2018-12-17T02:09:23.475Z,1032.37
2018-12-17T02:10:23.459Z,1032.39
2018-12-17T02:11:23.443Z,1032.38
2018-12-17T02:12:23.428Z,1032.43
2018-12-17T02:13:23.411Z,1032.4
2018-12-17T02:14:23.397Z,1032.39
2018-12-17T02:15:23.381Z,1032.41
2018-12-17T02:16:23.365Z,1032.39
2018-12-17T02:17:23.349Z,1032.41
2018-12-17T02:18:23.335Z,1032.45
2018-12-17T02:19:23.318Z,1032.46
2018-12-17T02:20:23.303Z,1032.52
2018-12-17T02:21:23.286Z,1032.5
2018-12-17T02:22:23.271Z,1032.51
2018-12-17T02:23:23.256Z,1032.58
2018-12-17T02:24:23.250Z,1032.62
2018-12-17T02:25:23.223Z,1032.67
2018-12-17T02:26:23.210Z,1032.79
2018-12-17T02:27:23.192Z,1032.89
2018-12-17T02:28:23.179Z,1032.99
2018-12-17T02:29:23.163Z,1033.05
2018-12-17T02:30:23.147Z,1033.1
2018-12-17T02:31:23.131Z,1033.17
2018-12-17T02:32:23.114Z,1033.25
2018-12-17T02:33:23.099Z,1033.29
2018-12-17T02:34:23.081Z,1033.3
2018-12-17T02:35:25.021Z,1033.32
2018-12-17T02:36:23.048Z,1033.29
2018-12-17T02:37:23.034Z,1033.25
2018-12-17T02:38:23.019Z,1033.28
2018-12-17T02:39:22.999Z,1033.21
2018-12-17T02:40:22.984Z,1033.19
2018-12-17T02:41:22.970Z,1033.07
2018-12-17T02:42:22.952Z,1033.01
2018-12-17T02:43:22.935Z,1033.02
2018-12-17T02:44:22.919Z,1032.98
2018-12-17T02:45:22.903Z,1032.95
2018-12-17T02:46:22.887Z,1032.93
2018-12-17T02:47:22.871Z,1032.91
2018-12-17T02:48:22.855Z,1032.9
2018-12-17T02:49:22.838Z,1032.92
2018-12-17T02:50:22.824Z,1032.91
2018-12-17T02:51:22.808Z,1032.91
2018-12-17T02:52:22.791Z,1032.92
2018-12-17T02:53:22.775Z,1032.91
2018-12-17T02:54:22.758Z,1032.93
2018-12-17T02:55:22.741Z,1032.88
2018-12-17T02:56:22.726Z,1032.92
2018-12-17T02:57:22.708Z,1032.95
2018-12-17T02:58:22.692Z,1032.92
2018-12-17T02:59:22.675Z,1032.91
2018-12-17T03:00:22.695Z,1032.95
2018-12-17T03:01:22.684Z,1032.99
2018-12-17T03:02:22.627Z,1032.99
2018-12-17T03:03:22.612Z,1033.04
2018-12-17T03:04:22.595Z,1033.03
2018-12-17T03:05:22.579Z,1032.97
2018-12-17T03:06:22.563Z,1032.91
2018-12-17T03:07:22.546Z,1032.88
2018-12-17T03:08:22.531Z,1032.81
2018-12-17T03:09:22.514Z,1032.82
2018-12-17T03:10:22.498Z,1032.74
2018-12-17T03:11:22.483Z,1032.68
2018-12-17T03:12:22.466Z,1032.7
2018-12-17T03:13:22.450Z,1032.67
2018-12-17T03:14:22.436Z,1032.7
2018-12-17T03:15:22.420Z,1032.69
2018-12-17T03:16:22.405Z,1032.71
2018-12-17T03:17:22.388Z,1032.77
2018-12-17T03:18:22.375Z,1032.74
2018-12-17T03:19:22.355Z,1032.72
2018-12-17T03:20:22.340Z,1032.75
2018-12-17T03:21:22.324Z,1032.77
2018-12-17T03:22:22.310Z,1032.78
2018-12-17T03:23:22.292Z,1032.83
2018-12-17T03:24:22.278Z,1032.84
2018-12-17T03:25:22.262Z,1032.81
2018-12-17T03:26:22.245Z,1032.8
2018-12-17T03:27:22.230Z,1032.77
2018-12-17T03:28:22.215Z,1032.77
2018-12-17T03:29:22.197Z,1032.78
2018-12-17T03:30:22.182Z,1032.78
2018-12-17T03:31:22.167Z,1032.81
2018-12-17T03:32:22.152Z,1032.78
2018-12-17T03:33:22.135Z,1032.77
2018-12-17T03:34:22.118Z,1032.77
2018-12-17T03:35:22.102Z,1032.78
2018-12-17T03:36:22.087Z,1032.77
2018-12-17T03:37:22.070Z,1032.78
2018-12-17T03:38:22.056Z,1032.81
2018-12-17T03:39:22.040Z,1032.83
2018-12-17T03:40:22.026Z,1032.8
2018-12-17T03:41:22.008Z,1032.8
2018-12-17T03:42:21.993Z,1032.76
2018-12-17T03:43:21.978Z,1032.75
2018-12-17T03:44:21.962Z,1032.76
2018-12-17T03:45:21.946Z,1032.72
2018-12-17T03:46:21.930Z,1032.8
2018-12-17T03:47:21.916Z,1032.75
2018-12-17T03:48:21.897Z,1032.76
2018-12-17T03:49:21.884Z,1032.75
2018-12-17T03:50:21.866Z,1032.78
2018-12-17T03:51:21.853Z,1032.78
2018-12-17T03:52:21.835Z,1032.78
2018-12-17T03:53:21.821Z,1032.78
2018-12-17T03:54:21.804Z,1032.77
2018-12-17T03:55:21.789Z,1032.75
2018-12-17T03:56:21.772Z,1032.75
2018-12-17T03:57:21.756Z,1032.76
2018-12-17T03:58:21.741Z,1032.77
2018-12-17T03:59:21.725Z,1032.77
2018-12-17T04:00:21.709Z,1032.74
2018-12-17T04:01:21.694Z,1032.76
2018-12-17T04:02:21.679Z,1032.8
2018-12-17T04:03:22.232Z,1032.82
2018-12-17T04:04:21.654Z,1032.86
2018-12-17T04:05:21.634Z,1032.84
2018-12-17T04:06:21.616Z,1032.87
2018-12-17T04:07:21.599Z,1032.87
2018-12-17T04:08:21.584Z,1032.9
2018-12-17T04:09:21.569Z,1032.95
2018-12-17T04:10:21.555Z,1032.93
2018-12-17T04:11:21.538Z,1032.92
2018-12-17T04:12:21.522Z,1032.97
2018-12-17T04:13:21.507Z,1032.92
2018-12-17T04:14:21.497Z,1032.88
2018-12-17T04:15:21.476Z,1032.83
2018-12-17T04:16:21.458Z,1032.84
2018-12-17T04:17:21.446Z,1032.8
2018-12-17T04:18:21.427Z,1032.8
2018-12-17T04:19:21.414Z,1032.77
2018-12-17T04:20:21.399Z,1032.78
2018-12-17T04:21:21.392Z,1032.76
2018-12-17T04:22:21.368Z,1032.8
2018-12-17T04:23:21.350Z,1032.74
2018-12-17T04:24:21.335Z,1032.8
2018-12-17T04:25:21.318Z,1032.75
2018-12-17T04:26:21.302Z,1032.74
2018-12-17T04:27:21.292Z,1032.72
2018-12-17T04:28:21.273Z,1032.72
2018-12-17T04:29:21.256Z,1032.71
2018-12-17T04:30:21.240Z,1032.75
2018-12-17T04:31:21.225Z,1032.76
2018-12-17T04:32:21.211Z,1032.78
2018-12-17T04:33:21.212Z,1032.82
2018-12-17T04:34:21.178Z,1032.79
2018-12-17T04:35:21.165Z,1032.78
2018-12-17T04:36:21.148Z,1032.76
2018-12-17T04:37:21.132Z,1032.77
2018-12-17T04:38:21.116Z,1032.71
2018-12-17T04:39:21.150Z,1032.77
2018-12-17T04:40:21.086Z,1032.79
2018-12-17T04:41:21.071Z,1032.79
2018-12-17T04:42:21.055Z,1032.72
2018-12-17T04:43:21.082Z,1032.72
2018-12-17T04:44:21.024Z,1032.72
2018-12-17T04:45:21.008Z,1032.73
2018-12-17T04:46:20.993Z,1032.8
2018-12-17T04:47:20.977Z,1032.81
2018-12-17T04:48:20.961Z,1032.75
2018-12-17T04:49:20.951Z,1032.84
2018-12-17T04:50:20.932Z,1032.9
2018-12-17T04:51:20.917Z,1032.91
2018-12-17T04:52:20.901Z,1032.93
2018-12-17T04:53:20.886Z,1032.94
2018-12-17T04:54:20.882Z,1032.94
2018-12-17T04:55:20.856Z,1032.96
2018-12-17T04:56:20.841Z,1032.97
2018-12-17T04:57:20.825Z,1032.99
2018-12-17T04:58:20.809Z,1032.97
2018-12-17T04:59:20.794Z,1033
2018-12-17T05:00:20.780Z,1032.99
2018-12-17T05:01:20.761Z,1032.97
2018-12-17T05:02:20.746Z,1033
2018-12-17T05:03:20.731Z,1033.01
2018-12-17T05:04:20.718Z,1033.02
2018-12-17T05:05:20.704Z,1033.06
2018-12-17T05:06:20.686Z,1033.07
2018-12-17T05:07:20.671Z,1033.07
2018-12-17T05:08:20.654Z,1033.04
2018-12-17T05:09:20.638Z,1033.03
2018-12-17T05:10:20.623Z,1033.11
2018-12-17T05:11:20.608Z,1033.1
2018-12-17T05:12:20.593Z,1033.1
2018-12-17T05:13:20.578Z,1033.09
2018-12-17T05:14:20.562Z,1033.16
2018-12-17T05:15:20.548Z,1033.16
2018-12-17T05:16:20.533Z,1033.16
2018-12-17T05:17:20.517Z,1033.18
2018-12-17T05:18:20.501Z,1033.18
2018-12-17T05:19:20.486Z,1033.17
2018-12-17T05:20:20.470Z,1033.2
2018-12-17T05:21:20.455Z,1033.22
2018-12-17T05:22:20.439Z,1033.18
2018-12-17T05:23:20.425Z,1033.2
2018-12-17T05:24:20.408Z,1033.19
2018-12-17T05:25:20.393Z,1033.22
2018-12-17T05:26:20.379Z,1033.22
2018-12-17T05:27:20.363Z,1033.17
2018-12-17T05:28:20.348Z,1033.19
2018-12-17T05:29:21.601Z,1033.18
2018-12-17T05:30:20.316Z,1033.21
2018-12-17T05:31:20.301Z,1033.22
2018-12-17T05:32:20.286Z,1033.22
2018-12-17T05:33:20.270Z,1033.21
2018-12-17T05:34:20.256Z,1033.2
2018-12-17T05:35:20.239Z,1033.2
2018-12-17T05:36:20.226Z,1033.19
2018-12-17T05:37:20.213Z,1033.2
2018-12-17T05:38:20.194Z,1033.23
2018-12-17T05:39:20.178Z,1033.29
2018-12-17T05:40:20.167Z,1033.27
2018-12-17T05:41:20.148Z,1033.33
2018-12-17T05:42:20.133Z,1033.31
2018-12-17T05:43:20.117Z,1033.29
2018-12-17T05:44:20.104Z,1033.36
2018-12-17T05:45:20.088Z,1033.36
2018-12-17T05:46:20.075Z,1033.36
2018-12-17T05:47:20.057Z,1033.42
2018-12-17T05:48:20.043Z,1033.39
2018-12-17T05:49:20.027Z,1033.41
2018-12-17T05:50:20.011Z,1033.43
2018-12-17T05:51:19.996Z,1033.44
2018-12-17T05:52:19.981Z,1033.45
2018-12-17T05:53:19.964Z,1033.48
2018-12-17T05:54:19.950Z,1033.5
2018-12-17T05:55:19.935Z,1033.5
2018-12-17T05:56:19.923Z,1033.52
2018-12-17T05:57:19.904Z,1033.54
2018-12-17T05:58:19.901Z,1033.59
2018-12-17T05:59:19.876Z,1033.66
2018-12-17T06:00:19.858Z,1033.72
2018-12-17T06:01:19.843Z,1033.78
2018-12-17T06:02:19.828Z,1033.83
2018-12-17T06:03:19.813Z,1033.84
2018-12-17T06:04:19.797Z,1033.87
2018-12-17T06:05:19.782Z,1033.85
2018-12-17T06:06:19.766Z,1033.85
2018-12-17T06:07:19.751Z,1033.8
2018-12-17T06:08:19.736Z,1033.77
2018-12-17T06:09:19.721Z,1033.72
2018-12-17T06:10:19.705Z,1033.77
2018-12-17T06:11:19.689Z,1033.75
2018-12-17T06:12:19.674Z,1033.78
2018-12-17T06:13:19.660Z,1033.78
2018-12-17T06:14:19.644Z,1033.84
2018-12-17T06:15:19.627Z,1033.86
2018-12-17T06:16:19.613Z,1033.86
2018-12-17T06:17:19.600Z,1033.88
2018-12-17T06:18:19.582Z,1033.86
2018-12-17T06:19:19.567Z,1033.82
2018-12-17T06:20:19.552Z,1033.82
2018-12-17T06:21:19.536Z,1033.86
2018-12-17T06:22:19.521Z,1033.91
2018-12-17T06:23:19.533Z,1033.91
2018-12-17T06:24:19.491Z,1033.84
2018-12-17T06:25:19.476Z,1033.86
2018-12-17T06:26:19.460Z,1033.84
2018-12-17T06:27:19.445Z,1033.86
2018-12-17T06:28:19.432Z,1033.86
2018-12-17T06:29:19.416Z,1033.84
2018-12-17T06:30:19.400Z,1033.88
2018-12-17T06:31:19.385Z,1033.86
2018-12-17T06:32:19.371Z,1033.93
2018-12-17T06:33:19.354Z,1033.97
2018-12-17T06:34:19.346Z,1033.99
2018-12-17T06:35:19.324Z,1033.97
2018-12-17T06:36:19.308Z,1034
2018-12-17T06:37:19.292Z,1034
2018-12-17T06:38:19.278Z,1033.99
2018-12-17T06:39:19.263Z,1033.99
2018-12-17T06:40:19.251Z,1034
2018-12-17T06:41:19.235Z,1034.02
2018-12-17T06:42:19.219Z,1033.96
2018-12-17T06:43:19.202Z,1033.93
2018-12-17T06:44:19.186Z,1033.96
2018-12-17T06:45:19.176Z,1033.99
2018-12-17T06:46:19.157Z,1034.03
2018-12-17T06:47:19.145Z,1034.08
2018-12-17T06:48:19.127Z,1034.08
2018-12-17T06:49:19.112Z,1034.09
2018-12-17T06:50:19.097Z,1034.1
2018-12-17T06:51:19.080Z,1034.11
2018-12-17T06:52:19.067Z,1034.09
2018-12-17T06:53:19.052Z,1034.07
2018-12-17T06:54:19.037Z,1034.08
2018-12-17T06:55:19.027Z,1034.05
2018-12-17T06:56:19.006Z,1034.09
2018-12-17T06:57:18.992Z,1034.13
2018-12-17T06:58:18.975Z,1034.13
2018-12-17T06:59:18.961Z,1034.14
2018-12-17T07:00:18.948Z,1034.13
2018-12-17T07:01:18.936Z,1034.19
2018-12-17T07:02:18.915Z,1034.16
2018-12-17T07:03:18.901Z,1034.16
2018-12-17T07:04:18.890Z,1034.16
2018-12-17T07:05:18.873Z,1034.16
2018-12-17T07:06:18.856Z,1034.19
2018-12-17T07:07:18.841Z,1034.19
2018-12-17T07:08:18.826Z,1034.22
2018-12-17T07:09:18.811Z,1034.23
2018-12-17T07:10:18.797Z,1034.29
2018-12-17T07:11:18.782Z,1034.26
2018-12-17T07:12:18.767Z,1034.3
2018-12-17T07:13:18.751Z,1034.3
2018-12-17T07:14:18.736Z,1034.36
2018-12-17T07:15:18.722Z,1034.39
2018-12-17T07:16:18.710Z,1034.41
2018-12-17T07:17:18.691Z,1034.43
2018-12-17T07:18:18.678Z,1034.43
2018-12-17T07:19:18.663Z,1034.43
2018-12-17T07:20:18.646Z,1034.43
2018-12-17T07:21:18.658Z,1034.42
2018-12-17T07:22:18.616Z,1034.41
2018-12-17T07:23:18.602Z,1034.38
2018-12-17T07:24:18.587Z,1034.36
2018-12-17T07:25:18.572Z,1034.36
2018-12-17T07:26:18.557Z,1034.36
2018-12-17T07:27:18.547Z,1034.37
2018-12-17T07:28:18.528Z,1034.43
2018-12-17T07:29:18.514Z,1034.45
2018-12-17T07:30:18.499Z,1034.45
2018-12-17T07:31:18.483Z,1034.43
2018-12-17T07:32:18.745Z,1034.42
2018-12-17T07:33:18.453Z,1034.44
2018-12-17T07:34:18.438Z,1034.4
2018-12-17T07:35:18.422Z,1034.42
2018-12-17T07:36:18.409Z,1034.4
2018-12-17T07:37:18.395Z,1034.43
2018-12-17T07:38:18.379Z,1034.45
2018-12-17T07:39:18.364Z,1034.39
2018-12-17T07:40:18.351Z,1034.37
2018-12-17T07:41:18.335Z,1034.37
2018-12-17T07:42:18.319Z,1034.34
2018-12-17T07:43:18.306Z,1034.37
2018-12-17T07:44:18.291Z,1034.36
2018-12-17T07:45:18.276Z,1034.35
2018-12-17T07:46:18.261Z,1034.33
2018-12-17T07:47:18.247Z,1034.35
2018-12-17T07:48:18.232Z,1034.3
2018-12-17T07:49:18.218Z,1034.29
2018-12-17T07:50:18.203Z,1034.29
2018-12-17T07:51:18.189Z,1034.3
2018-12-17T07:52:18.174Z,1034.32
2018-12-17T07:53:18.158Z,1034.31
2018-12-17T07:54:18.144Z,1034.3
2018-12-17T07:55:18.130Z,1034.32
2018-12-17T07:56:18.119Z,1034.25
2018-12-17T07:57:18.101Z,1034.23
2018-12-17T07:58:18.086Z,1034.22
2018-12-17T07:59:18.072Z,1034.18
2018-12-17T08:00:18.058Z,1034.15
2018-12-17T08:01:18.043Z,1034.1
2018-12-17T08:02:18.029Z,1034.11
2018-12-17T08:03:18.015Z,1034.06
2018-12-17T08:04:18.000Z,1034.13
2018-12-17T08:05:17.986Z,1034.11
2018-12-17T08:06:17.974Z,1034.13
2018-12-17T08:07:17.958Z,1034.11
2018-12-17T08:08:17.943Z,1034.12
2018-12-17T08:09:17.929Z,1034.14
2018-12-17T08:10:17.916Z,1034.14
2018-12-17T08:11:17.901Z,1034.14
2018-12-17T08:12:17.887Z,1034.14
2018-12-17T08:13:17.909Z,1034.15
2018-12-17T08:14:17.858Z,1034.14
2018-12-17T08:15:17.844Z,1034.18
2018-12-17T08:16:17.833Z,1034.18
2018-12-17T08:17:17.818Z,1034.19
2018-12-17T08:18:17.802Z,1034.21
2018-12-17T08:19:17.786Z,1034.19
2018-12-17T08:20:17.773Z,1034.18
2018-12-17T08:21:17.760Z,1034.17
2018-12-17T08:22:17.746Z,1034.15
2018-12-17T08:23:17.732Z,1034.12
2018-12-17T08:24:17.719Z,1034.08
2018-12-17T08:25:17.705Z,1034.07
2018-12-17T08:26:17.690Z,1034.07
2018-12-17T08:27:17.675Z,1034.13
2018-12-17T08:28:17.663Z,1034.17
2018-12-17T08:29:17.648Z,1034.15
2018-12-17T08:30:17.632Z,1034.14
2018-12-17T08:31:17.619Z,1034.14
2018-12-17T08:32:17.605Z,1034.17
2018-12-17T08:33:17.593Z,1034.14
2018-12-17T08:34:17.577Z,1034.14
2018-12-17T08:35:17.563Z,1034.15
2018-12-17T08:36:17.549Z,1034.15
2018-12-17T08:37:17.535Z,1034.14
2018-12-17T08:38:17.521Z,1034.2
2018-12-17T08:39:17.508Z,1034.18
2018-12-17T08:40:17.494Z,1034.22
2018-12-17T08:41:17.481Z,1034.15
2018-12-17T08:42:17.467Z,1034.17
2018-12-17T08:43:17.453Z,1034.21
2018-12-17T08:44:17.438Z,1034.19
2018-12-17T08:45:17.425Z,1034.15
2018-12-17T08:46:17.412Z,1034.16
2018-12-17T08:47:17.397Z,1034.14
2018-12-17T08:48:17.383Z,1034.18
2018-12-17T08:49:17.369Z,1034.13
2018-12-17T08:50:17.356Z,1034.21
2018-12-17T08:51:17.342Z,1034.22
2018-12-17T08:52:17.328Z,1034.18
2018-12-17T08:53:17.316Z,1034.15
2018-12-17T08:54:17.301Z,1034.24
2018-12-17T08:55:17.287Z,1034.25
2018-12-17T08:56:17.273Z,1034.2
2018-12-17T08:57:17.260Z,1034.16
2018-12-17T08:58:17.248Z,1034.21
2018-12-17T08:59:17.233Z,1034.26
2018-12-17T09:00:17.222Z,1034.26
2018-12-17T09:01:17.206Z,1034.28
2018-12-17T09:02:17.194Z,1034.34
2018-12-17T09:03:17.178Z,1034.32
2018-12-17T09:04:17.167Z,1034.31
2018-12-17T09:05:17.153Z,1034.32
2018-12-17T09:06:17.141Z,1034.33
2018-12-17T09:07:17.126Z,1034.37
2018-12-17T09:08:17.111Z,1034.39
2018-12-17T09:09:17.099Z,1034.37
2018-12-17T09:10:17.084Z,1034.38
2018-12-17T09:11:17.072Z,1034.31
2018-12-17T09:12:17.057Z,1034.3
2018-12-17T09:13:17.045Z,1034.21
2018-12-17T09:14:17.030Z,1034.2
2018-12-17T09:15:17.019Z,1034.19
2018-12-17T09:16:17.004Z,1034.14
2018-12-17T09:17:16.991Z,1034.14
2018-12-17T09:18:16.978Z,1034.09
2018-12-17T09:19:16.965Z,1034
2018-12-17T09:20:16.951Z,1034.02
2018-12-17T09:21:16.938Z,1034.05
2018-12-17T09:22:16.924Z,1033.99
2018-12-17T09:23:16.911Z,1033.97
2018-12-17T09:24:16.898Z,1033.98
2018-12-17T09:25:16.884Z,1033.96
2018-12-17T09:26:16.871Z,1033.94
2018-12-17T09:27:16.859Z,1033.95
2018-12-17T09:28:16.845Z,1033.99
2018-12-17T09:29:16.832Z,1033.95
2018-12-17T09:30:18.435Z,1033.87
2018-12-17T09:31:16.807Z,1033.88
2018-12-17T09:32:16.793Z,1033.86
2018-12-17T09:33:16.779Z,1033.85
2018-12-17T09:34:16.768Z,1033.83
2018-12-17T09:35:16.755Z,1033.78
2018-12-17T09:36:16.743Z,1033.78
2018-12-17T09:37:16.730Z,1033.78
2018-12-17T09:38:16.718Z,1033.78
2018-12-17T09:39:16.704Z,1033.78
2018-12-17T09:40:16.691Z,1033.8
2018-12-17T09:41:16.678Z,1033.8
2018-12-17T09:42:16.666Z,1033.79
2018-12-17T09:43:16.652Z,1033.77
2018-12-17T09:44:16.643Z,1033.78
2018-12-17T09:45:16.635Z,1033.83
2018-12-17T09:46:16.613Z,1033.89
2018-12-17T09:47:16.601Z,1033.86
2018-12-17T09:48:16.589Z,1033.81
2018-12-17T09:49:16.577Z,1033.81
2018-12-17T09:50:16.802Z,1033.78
2018-12-17T09:51:19.620Z,1033.75
2018-12-17T09:52:16.538Z,1033.73
2018-12-17T09:53:16.527Z,1033.74
2018-12-17T09:54:16.512Z,1033.81
2018-12-17T09:55:16.500Z,1033.84
2018-12-17T09:56:16.490Z,1033.87
2018-12-17T09:57:16.477Z,1033.85
2018-12-17T09:58:16.466Z,1033.81
2018-12-17T09:59:16.451Z,1033.79
2018-12-17T10:00:16.438Z,1033.79
2018-12-17T10:01:16.425Z,1033.74
2018-12-17T10:02:16.414Z,1033.66
2018-12-17T10:03:16.401Z,1033.67
2018-12-17T10:04:16.389Z,1033.68
2018-12-17T10:05:16.375Z,1033.72
2018-12-17T10:06:16.364Z,1033.7
2018-12-17T10:07:16.351Z,1033.58
2018-12-17T10:08:16.341Z,1033.57
2018-12-17T10:09:16.328Z,1033.6
2018-12-17T10:10:16.315Z,1033.59
2018-12-17T10:11:16.305Z,1033.56
2018-12-17T10:12:16.290Z,1033.58
2018-12-17T10:13:16.279Z,1033.58
2018-12-17T10:14:16.266Z,1033.54
2018-12-17T10:15:16.255Z,1033.52
2018-12-17T10:16:16.241Z,1033.52
2018-12-17T10:17:16.229Z,1033.5
2018-12-17T10:18:16.217Z,1033.52
2018-12-17T10:19:16.205Z,1033.5
2018-12-17T10:20:16.193Z,1033.56
2018-12-17T10:21:16.180Z,1033.58
2018-12-17T10:22:16.169Z,1033.6
2018-12-17T10:23:16.159Z,1033.61
2018-12-17T10:24:16.144Z,1033.58
2018-12-17T10:25:16.133Z,1033.51
2018-12-17T10:26:16.121Z,1033.52
2018-12-17T10:27:16.441Z,1033.55
2018-12-17T10:28:16.097Z,1033.5
2018-12-17T10:29:16.085Z,1033.55
2018-12-17T10:30:16.076Z,1033.6
2018-12-17T10:31:16.062Z,1033.58
2018-12-17T10:32:16.048Z,1033.57
2018-12-17T10:33:16.037Z,1033.62
2018-12-17T10:34:16.024Z,1033.6
2018-12-17T10:35:16.013Z,1033.6
2018-12-17T10:36:16.002Z,1033.62
2018-12-17T10:37:15.990Z,1033.64
2018-12-17T10:38:15.978Z,1033.64
2018-12-17T10:39:15.967Z,1033.61
2018-12-17T10:40:15.966Z,1033.57
2018-12-17T10:41:15.941Z,1033.52
2018-12-17T10:42:15.930Z,1033.56
2018-12-17T10:43:15.918Z,1033.57
2018-12-17T10:44:15.906Z,1033.47
2018-12-17T10:45:15.894Z,1033.49
2018-12-17T10:46:15.885Z,1033.48
2018-12-17T10:47:15.873Z,1033.44
2018-12-17T10:48:15.859Z,1033.45
2018-12-17T10:49:15.847Z,1033.43
2018-12-17T10:50:15.836Z,1033.46
2018-12-17T10:51:15.823Z,1033.49
2018-12-17T10:52:15.811Z,1033.46
2018-12-17T10:53:15.799Z,1033.42
2018-12-17T10:54:15.788Z,1033.41
2018-12-17T10:55:15.777Z,1033.42
2018-12-17T10:56:15.764Z,1033.41
2018-12-17T10:57:15.752Z,1033.41
2018-12-17T10:58:15.741Z,1033.43
2018-12-17T10:59:15.730Z,1033.43
2018-12-17T11:00:15.718Z,1033.4
2018-12-17T11:01:15.708Z,1033.42
2018-12-17T11:02:15.696Z,1033.38
2018-12-17T11:03:15.683Z,1033.4
2018-12-17T11:04:15.671Z,1033.36
2018-12-17T11:05:15.667Z,1033.37
2018-12-17T11:06:15.649Z,1033.43
2018-12-17T11:07:15.637Z,1033.4
2018-12-17T11:08:15.624Z,1033.45
2018-12-17T11:09:15.613Z,1033.45
2018-12-17T11:10:15.602Z,1033.46
2018-12-17T11:11:15.591Z,1033.45
2018-12-17T11:12:15.579Z,1033.45
2018-12-17T11:13:15.568Z,1033.48
2018-12-17T11:14:15.555Z,1033.47
2018-12-17T11:15:15.550Z,1033.48
2018-12-17T11:16:15.533Z,1033.45
2018-12-17T11:17:15.538Z,1033.44
2018-12-17T11:18:15.509Z,1033.41
2018-12-17T11:19:15.498Z,1033.4
2018-12-17T11:20:15.487Z,1033.43
2018-12-17T11:21:15.474Z,1033.46
2018-12-17T11:22:15.464Z,1033.43
2018-12-17T11:23:15.452Z,1033.44
2018-12-17T11:24:15.441Z,1033.41
2018-12-17T11:25:15.429Z,1033.4
2018-12-17T11:26:15.417Z,1033.41
2018-12-17T11:27:15.405Z,1033.37
2018-12-17T11:28:15.395Z,1033.35
2018-12-17T11:29:15.383Z,1033.27
2018-12-17T11:30:15.370Z,1033.23
2018-12-17T11:31:15.360Z,1033.21
2018-12-17T11:32:15.347Z,1033.16
2018-12-17T11:33:15.336Z,1033.14
2018-12-17T11:34:15.323Z,1033.14
2018-12-17T11:35:15.312Z,1033.15
2018-12-17T11:36:15.300Z,1033.2
2018-12-17T11:37:15.288Z,1033.26
2018-12-17T11:38:15.277Z,1033.28
2018-12-17T11:39:15.265Z,1033.42
2018-12-17T11:40:15.253Z,1033.48
2018-12-17T11:41:15.242Z,1033.67
2018-12-17T11:42:15.230Z,1033.85
2018-12-17T11:43:15.218Z,1033.89
2018-12-17T11:44:15.207Z,1033.95
2018-12-17T11:45:15.195Z,1033.97
2018-12-17T11:46:15.183Z,1033.94
2018-12-17T11:47:15.171Z,1033.94
2018-12-17T11:48:15.160Z,1033.95
2018-12-17T11:49:15.148Z,1033.93
2018-12-17T11:50:15.137Z,1033.92
2018-12-17T11:51:15.124Z,1033.82
2018-12-17T11:52:15.113Z,1033.8
2018-12-17T11:53:15.101Z,1033.76
2018-12-17T11:54:15.089Z,1033.72
2018-12-17T11:55:15.078Z,1033.71
2018-12-17T11:56:15.066Z,1033.65
2018-12-17T11:57:15.055Z,1033.65
2018-12-17T11:58:15.044Z,1033.67
2018-12-17T11:59:15.031Z,1033.71
2018-12-17T12:00:15.018Z,1033.65
2018-12-17T12:01:15.006Z,1033.62
2018-12-17T12:02:14.993Z,1033.62
2018-12-17T12:03:14.982Z,1033.67
2018-12-17T12:04:14.971Z,1033.65
2018-12-17T12:05:14.960Z,1033.69
2018-12-17T12:06:14.949Z,1033.77
2018-12-17T12:07:14.936Z,1033.79
2018-12-17T12:08:14.925Z,1033.83
2018-12-17T12:09:14.911Z,1033.87